Time;durP1;ratioP1;P1;durP2;ratioP2;P2;SDS_P1;SDS_P2;PMS_P1;PMS_P2;Temp;Humidity;BMP_temperature;BMP_pressure;BME280_temperature;BME280_humidity;BME280_pressure;Samples;Min_cycle;Max_cycle;Signal;HPM_P1;HPM_P2
2023/01/04 00:01:20;;;;;;;6.57;1.80;;;17.10;1.00;;;;;;5054133;28;20455;-32
2023/01/04 00:03:47;;;;;;;2.45;1.13;;;17.10;1.00;;;;;;5053880;28;20056;-32
2023/01/04 00:06:16;;;;;;;8.77;1.60;;;17.00;1.00;;;;;;5053948;28;20045;-32
2023/01/04 00:08:42;;;;;;;3.05;1.00;;;17.00;1.00;;;;;;5053942;28;20052;-32
2023/01/04 00:11:16;;;;;;;1.80;0.82;;;17.00;1.00;;;;;;5053957;28;20098;-32
2023/01/04 00:13:44;;;;;;;7.18;1.58;;;17.00;1.00;;;;;;5053763;28;20047;-32
2023/01/04 00:16:14;;;;;;;4.10;1.38;;;16.90;1.00;;;;;;5053955;28;20536;-32
2023/01/04 00:18:41;;;;;;;5.78;2.22;;;16.90;1.00;;;;;;5053818;28;20041;-32
2023/01/04 00:21:17;;;;;;;4.00;1.65;;;16.90;1.00;;;;;;5053651;28;20411;-32
2023/01/04 00:23:45;;;;;;;4.40;1.02;;;16.80;1.00;;;;;;5053526;28;20447;-32
2023/01/04 00:26:15;;;;;;;8.77;1.40;;;16.80;1.00;;;;;;5053789;28;20048;-32
2023/01/04 00:28:42;;;;;;;5.07;1.30;;;16.80;1.00;;;;;;5053677;28;20123;-32
2023/01/04 00:31:17;;;;;;;3.35;1.33;;;16.80;1.00;;;;;;5035593;28;20567;-32
2023/01/04 00:33:44;;;;;;;2.03;0.95;;;16.70;1.00;;;;;;5053111;28;20504;-32
2023/01/04 00:36:13;;;;;;;3.70;1.20;;;16.70;1.00;;;;;;5053551;28;20045;-32
2023/01/04 00:38:40;;;;;;;4.25;1.17;;;16.70;1.00;;;;;;5053499;28;20083;-32
2023/01/04 00:41:09;;;;;;;5.72;1.48;;;16.70;1.00;;;;;;5053295;28;20079;-32
2023/01/04 00:43:53;;;;;;;4.53;1.27;;;16.70;1.00;;;;;;5053051;28;20056;-32
2023/01/04 00:46:20;;;;;;;6.00;2.47;;;16.60;1.00;;;;;;5052225;28;20041;-32
2023/01/04 00:48:47;;;;;;;6.30;2.03;;;16.60;1.00;;;;;;5053033;28;20136;-32
2023/01/04 00:51:14;;;;;;;5.82;1.40;;;16.60;1.00;;;;;;5053238;28;20080;-32
2023/01/04 00:53:41;;;;;;;5.00;1.80;;;16.50;1.00;;;;;;5052999;28;20396;-32
2023/01/04 00:56:08;;;;;;;6.82;1.17;;;16.50;1.00;;;;;;5053021;28;20500;-32
2023/01/04 00:58:35;;;;;;;6.43;1.63;;;16.50;1.00;;;;;;5053035;28;20576;-32
2023/01/04 01:01:08;;;;;;;7.10;1.35;;;16.50;1.00;;;;;;5053018;28;20057;-32
2023/01/04 01:03:35;;;;;;;7.15;1.70;;;16.50;1.00;;;;;;5052759;28;20057;-32
2023/01/04 01:06:06;;;;;;;4.28;1.13;;;16.50;1.00;;;;;;5052813;28;20045;-32
2023/01/04 01:08:33;;;;;;;4.80;1.40;;;16.40;1.00;;;;;;5052862;28;20040;-32
2023/01/04 01:11:08;;;;;;;4.82;1.48;;;16.40;1.00;;;;;;5052792;28;20090;-32
2023/01/04 01:13:36;;;;;;;5.50;1.65;;;16.40;1.00;;;;;;5052529;28;20119;-32
2023/01/04 01:16:09;;;;;;;6.22;2.10;;;16.40;1.00;;;;;;5052771;28;20474;-32
2023/01/04 01:18:37;;;;;;;4.60;1.58;;;16.30;1.00;;;;;;5052700;28;20527;-32
2023/01/04 01:21:09;;;;;;;9.02;1.88;;;16.30;1.00;;;;;;5052655;28;20069;-32
2023/01/04 01:23:36;;;;;;;7.38;1.70;;;16.30;1.00;;;;;;5052287;28;20412;-32
2023/01/04 01:26:06;;;;;;;5.85;1.40;;;16.30;1.00;;;;;;5052621;28;20049;-32
2023/01/04 01:28:34;;;;;;;4.00;1.17;;;16.30;1.00;;;;;;5052606;28;20451;-32
2023/01/04 01:31:10;;;;;;;3.85;1.63;;;16.20;1.00;;;;;;5052441;28;20045;-32
2023/01/04 01:33:38;;;;;;;4.20;1.38;;;16.20;1.00;;;;;;5052186;28;20049;-32
2023/01/04 01:36:06;;;;;;;3.80;1.55;;;16.20;1.00;;;;;;5052428;28;20317;-32
2023/01/04 01:38:33;;;;;;;8.43;2.13;;;16.20;1.00;;;;;;5052268;28;20041;-32
2023/01/04 01:41:00;;;;;;;4.05;1.77;;;16.20;1.00;;;;;;5052339;28;20451;-32
2023/01/04 01:43:49;;;;;;;4.35;1.27;;;16.20;1.00;;;;;;5034107;28;20054;-32
2023/01/04 01:46:22;;;;;;;5.53;1.35;;;16.20;1.00;;;;;;5052078;28;20041;-32
2023/01/04 01:48:52;;;;;;;7.65;1.75;;;16.10;1.00;;;;;;5052012;28;20060;-32
2023/01/04 01:51:19;;;;;;;8.98;1.90;;;16.10;1.00;;;;;;5052145;28;20048;-32
2023/01/04 01:53:51;;;;;;;5.32;1.50;;;16.10;1.00;;;;;;5051831;28;20041;-32
2023/01/04 01:56:18;;;;;;;8.27;2.05;;;16.10;1.00;;;;;;5051975;28;20102;-33
2023/01/04 01:58:51;;;;;;;5.85;1.98;;;16.10;1.00;;;;;;5051832;28;20098;-32
2023/01/04 02:01:18;;;;;;;4.95;1.88;;;16.10;1.00;;;;;;5051941;28;20466;-32
2023/01/04 02:03:45;;;;;;;5.45;1.23;;;16.00;1.00;;;;;;5051695;28;20102;-32
2023/01/04 02:06:21;;;;;;;5.57;1.30;;;16.00;1.00;;;;;;5051883;28;20119;-32
2023/01/04 02:08:48;;;;;;;7.78;1.65;;;16.00;1.00;;;;;;5051835;28;20080;-32
2023/01/04 02:11:14;;;;;;;6.85;2.10;;;16.00;1.00;;;;;;5034217;28;20045;-32
2023/01/04 02:16:38;;;;;;;8.25;2.08;;;16.00;1.00;;;;;;5051833;28;20072;-32
2023/01/04 02:19:24;;;;;;;9.27;2.33;;;16.00;1.00;;;;;;5051691;28;20053;-32
2023/01/04 02:22:18;;;;;;;6.25;1.60;;;15.90;1.00;;;;;;5051737;28;20496;-32
2023/01/04 02:25:11;;;;;;;7.13;1.23;;;15.90;1.00;;;;;;5051574;28;20079;-32
2023/01/04 02:27:57;;;;;;;3.97;1.23;;;15.90;1.00;;;;;;5051603;28;20108;-32
2023/01/04 02:30:34;;;;;;;7.63;1.83;;;15.90;1.00;;;;;;5051512;28;20691;-32
2023/01/04 02:33:26;;;;;;;10.43;1.75;;;15.90;1.00;;;;;;5051467;28;20103;-32
2023/01/04 02:36:25;;;;;;;6.80;1.85;;;15.90;1.00;;;;;;5051669;28;20037;-32
2023/01/04 02:39:21;;;;;;;6.18;1.85;;;15.90;1.00;;;;;;5051504;28;20492;-32
2023/01/04 02:42:02;;;;;;;6.72;1.90;;;15.80;1.00;;;;;;5051629;28;20049;-32
2023/01/04 02:45:00;;;;;;;11.68;2.28;;;15.80;1.00;;;;;;5051342;28;20408;-32
2023/01/04 02:50:32;;;;;;;;;;;15.80;1.00;;;;;;5051997;28;20116;-32
2023/01/04 02:53:12;;;;;;;11.88;3.38;;;15.80;1.00;;;;;;5051188;28;19982;-32
2023/01/04 02:55:48;;;;;;;7.13;1.75;;;15.80;1.00;;;;;;5051459;28;20036;-32
2023/01/04 02:58:44;;;;;;;7.93;1.92;;;15.80;1.00;;;;;;5051352;28;20558;-32
2023/01/04 03:07:40;;;;;;;7.82;2.05;;;15.70;1.00;;;;;;5051076;28;20072;-32
2023/01/04 03:10:30;;;;;;;9.32;2.30;;;15.70;1.00;;;;;;5051125;28;20501;-32
2023/01/04 03:13:21;;;;;;;9.27;2.40;;;15.70;1.00;;;;;;5050725;28;20061;-32
2023/01/04 03:15:58;;;;;;;6.45;1.38;;;15.70;1.00;;;;;;5034682;28;20504;-32
2023/01/04 03:18:28;;;;;;;8.60;2.35;;;15.70;1.00;;;;;;5060088;28;20054;-32
2023/01/04 03:20:58;;;;;;;7.57;2.08;;;15.70;1.00;;;;;;5068941;28;20070;-32
2023/01/04 03:37:50;;;;;;;7.75;2.63;;;15.60;1.00;;;;;;5074603;28;20076;-32
2023/01/04 03:49:24;;;;;;;13.75;2.78;;;15.60;1.00;;;;;;5074337;28;20131;-32
2023/01/04 03:51:54;;;;;;;14.43;2.72;;;15.60;1.00;;;;;;5074408;28;20040;-32
2023/01/04 03:54:28;;;;;;;10.85;2.72;;;15.60;1.00;;;;;;5074092;28;20049;-32
2023/01/04 03:56:57;;;;;;;7.95;2.38;;;15.60;1.00;;;;;;5074354;28;20082;-32
2023/01/04 03:59:24;;;;;;;7.63;2.30;;;15.60;1.00;;;;;;5074292;28;20143;-32
2023/01/04 04:01:52;;;;;;;14.07;3.08;;;15.60;1.00;;;;;;5074097;28;20492;-32
2023/01/04 04:09:50;;;;;;;6.38;2.20;;;15.50;1.00;;;;;;5074108;28;20068;-32
2023/01/04 04:12:17;;;;;;;9.32;3.17;;;15.50;1.00;;;;;;5073761;28;20068;-32
2023/01/04 04:14:44;;;;;;;8.00;2.45;;;15.50;1.00;;;;;;5073820;28;20070;-32
2023/01/04 04:17:10;;;;;;;7.97;2.45;;;15.50;1.00;;;;;;5073945;28;20072;-32
2023/01/04 04:19:37;;;;;;;9.32;2.72;;;15.50;1.00;;;;;;5073827;28;20135;-32
2023/01/04 04:22:04;;;;;;;10.02;2.38;;;15.50;1.00;;;;;;5073669;28;20055;-32
2023/01/04 04:24:31;;;;;;;12.10;2.35;;;15.50;1.00;;;;;;5073577;28;20040;-32
2023/01/04 04:26:57;;;;;;;8.93;2.42;;;15.50;1.00;;;;;;5073636;28;20102;-32
2023/01/04 04:29:24;;;;;;;8.57;2.85;;;15.50;1.00;;;;;;5073704;28;20094;-33
2023/01/04 04:31:51;;;;;;;10.38;2.03;;;15.50;1.00;;;;;;5073481;28;20097;-32
2023/01/04 04:34:18;;;;;;;11.13;2.88;;;15.50;1.00;;;;;;5073273;28;20040;-32
2023/01/04 04:36:44;;;;;;;7.50;2.50;;;15.50;1.00;;;;;;5073541;28;20557;-32
2023/01/04 04:39:12;;;;;;;14.20;2.25;;;15.50;1.00;;;;;;5073450;28;20102;-32
2023/01/04 04:41:40;;;;;;;8.93;2.55;;;15.50;1.00;;;;;;5073363;28;20064;-32
2023/01/04 04:44:16;;;;;;;15.35;3.58;;;15.40;1.00;;;;;;5073156;28;20045;-32
2023/01/04 04:46:44;;;;;;;7.57;2.40;;;15.40;1.00;;;;;;5073261;28;20028;-32
2023/01/04 04:49:12;;;;;;;13.75;3.65;;;15.40;1.00;;;;;;5073184;28;20064;-40
2023/01/04 04:51:40;;;;;;;9.75;2.53;;;15.40;1.00;;;;;;5073257;28;20063;-39
2023/01/04 04:54:09;;;;;;;10.80;2.63;;;15.40;1.00;;;;;;5072898;28;20094;-39
2023/01/04 04:56:36;;;;;;;12.93;3.13;;;15.40;1.00;;;;;;5073104;28;20059;-40
2023/01/04 04:59:03;;;;;;;9.05;2.30;;;15.40;1.00;;;;;;5073154;28;20032;-39
2023/01/04 05:01:30;;;;;;;11.48;2.67;;;15.40;1.00;;;;;;5073060;28;20047;-37
2023/01/04 05:03:57;;;;;;;9.75;2.75;;;15.40;1.00;;;;;;5072589;28;20045;-40
2023/01/04 05:06:24;;;;;;;7.43;2.67;;;15.40;1.00;;;;;;5072827;28;20040;-40
2023/01/04 05:08:51;;;;;;;7.32;2.13;;;15.40;1.00;;;;;;5070986;28;20041;-41
2023/01/04 05:12:58;;;;;;;14.07;3.38;;;15.40;1.00;;;;;;5053325;28;20037;-35
2023/01/04 05:14:04;;;;;;;11.07;2.10;;;15.40;1.00;;;;;;5060061;28;20040;-38
2023/01/04 05:16:31;;;;;;;6.47;2.47;;;15.30;1.00;;;;;;5072755;28;20045;-40
2023/01/04 05:18:58;;;;;;;12.45;3.17;;;15.40;1.00;;;;;;5072585;28;20060;-40
2023/01/04 05:21:25;;;;;;;16.35;4.68;;;15.30;1.00;;;;;;5052169;28;20047;-36
2023/01/04 05:23:51;;;;;;;30.90;3.42;;;15.30;1.00;;;;;;5052410;28;20135;-41
2023/01/04 05:26:18;;;;;;;12.40;2.45;;;15.40;1.00;;;;;;5052519;28;20071;-40
2023/01/04 05:28:45;;;;;;;14.10;2.80;;;15.30;1.00;;;;;;5052525;28;20060;-37
2023/01/04 05:31:19;;;;;;;17.55;3.42;;;15.30;1.00;;;;;;5052533;28;20037;-37
2023/01/04 05:33:46;;;;;;;13.15;2.75;;;15.30;1.00;;;;;;5051589;28;20166;-37
2023/01/04 05:36:13;;;;;;;13.05;3.30;;;15.30;1.00;;;;;;5052396;28;20055;-39
2023/01/04 05:38:39;;;;;;;15.25;2.95;;;15.30;1.00;;;;;;5034539;28;20045;-37
2023/01/04 05:43:52;;;;;;;15.40;3.83;;;15.30;1.00;;;;;;5052161;28;20400;-38
2023/01/04 05:46:19;;;;;;;12.48;3.00;;;15.30;1.00;;;;;;5052207;28;20068;-38
2023/01/04 05:48:46;;;;;;;13.68;2.53;;;15.30;1.00;;;;;;5051971;28;20073;-41
2023/01/04 05:51:12;;;;;;;8.40;2.47;;;15.20;1.00;;;;;;5051342;28;20059;-37
2023/01/04 05:53:39;;;;;;;14.15;3.17;;;15.20;1.00;;;;;;5068068;28;20048;-35
2023/01/04 05:56:06;;;;;;;16.95;2.92;;;15.20;1.00;;;;;;5058460;28;20041;-42
2023/01/04 05:58:33;;;;;;;10.07;2.63;;;15.30;1.00;;;;;;5045581;28;20113;-40
2023/01/04 06:01:00;;;;;;;16.90;3.33;;;15.20;1.00;;;;;;5072013;28;20127;-37
2023/01/04 06:03:26;;;;;;;13.30;2.67;;;15.20;1.00;;;;;;5071726;28;20048;-38
2023/01/04 06:05:53;;;;;;;15.77;2.85;;;15.30;1.00;;;;;;5071989;28;20049;-41
2023/01/04 06:08:20;;;;;;;15.32;2.88;;;15.20;1.00;;;;;;5071791;28;20059;-39
2023/01/04 06:10:53;;;;;;;13.82;3.60;;;15.20;1.00;;;;;;5053964;28;20048;-40
2023/01/04 06:13:20;;;;;;;18.88;4.88;;;15.20;1.00;;;;;;5071529;28;20049;-39
2023/01/04 06:15:47;;;;;;;15.63;2.72;;;15.20;1.00;;;;;;5071873;28;20048;-37
2023/01/04 06:18:14;;;;;;;17.05;3.13;;;15.20;1.00;;;;;;5071798;28;20048;-39
2023/01/04 06:20:42;;;;;;;23.52;4.60;;;15.20;1.00;;;;;;5071750;28;20041;-37
2023/01/04 06:23:09;;;;;;;13.45;2.88;;;15.20;1.00;;;;;;5071448;28;20097;-38
2023/01/04 06:25:36;;;;;;;14.60;3.20;;;15.20;1.00;;;;;;5053838;28;20083;-40
2023/01/04 06:28:03;;;;;;;18.27;3.45;;;15.20;1.00;;;;;;5071544;28;20067;-38
2023/01/04 06:30:30;;;;;;;11.07;2.90;;;15.20;1.00;;;;;;5071694;28;20041;-37
2023/01/04 06:32:57;;;;;;;12.35;3.13;;;15.20;1.00;;;;;;5071327;28;20104;-37
2023/01/04 06:35:24;;;;;;;11.10;2.50;;;15.20;1.00;;;;;;5071715;28;20036;-38
2023/01/04 06:37:51;;;;;;;15.48;4.03;;;15.20;1.00;;;;;;5071631;28;20098;-40
2023/01/04 06:40:17;;;;;;;16.60;3.00;;;15.20;1.00;;;;;;5071447;28;20098;-34
2023/01/04 06:42:44;;;;;;;13.43;2.95;;;15.20;1.00;;;;;;5071274;28;20048;-35
2023/01/04 06:45:15;;;;;;;14.00;2.70;;;15.20;1.00;;;;;;5073138;28;20097;-38
2023/01/04 06:47:42;;;;;;;14.07;2.70;;;15.20;1.00;;;;;;5075372;28;20075;-37
2023/01/04 06:50:10;;;;;;;8.18;2.15;;;15.20;1.00;;;;;;5075547;28;20036;-37
2023/01/04 06:52:36;;;;;;;12.65;2.63;;;15.20;1.00;;;;;;5075355;28;20052;-39
2023/01/04 06:55:05;;;;;;;10.85;3.85;;;15.20;1.00;;;;;;5075396;28;20044;-37
2023/01/04 06:57:32;;;;;;;11.95;2.97;;;15.10;1.00;;;;;;5057350;28;20051;-36
2023/01/04 06:59:59;;;;;;;16.73;3.70;;;15.20;1.00;;;;;;5075461;28;20052;-38
2023/01/04 07:02:26;;;;;;;12.02;2.45;;;15.10;1.00;;;;;;5075154;28;20048;-34
2023/01/04 07:04:53;;;;;;;10.00;2.08;;;15.20;1.00;;;;;;5075253;28;20040;-38
2023/01/04 07:07:20;;;;;;;15.25;2.20;;;15.10;1.00;;;;;;5056884;28;20045;-34
2023/01/04 07:09:46;;;;;;;9.98;2.88;;;15.10;1.00;;;;;;5075129;28;20045;-39
2023/01/04 07:12:13;;;;;;;18.42;3.38;;;15.10;1.00;;;;;;5075077;28;20044;-38
2023/01/04 07:14:40;;;;;;;12.18;3.40;;;15.10;1.00;;;;;;5074950;28;20033;-35
2023/01/04 07:17:06;;;;;;;16.48;3.97;;;15.10;1.00;;;;;;5075093;28;20033;-34
2023/01/04 07:19:33;;;;;;;9.30;3.15;;;15.10;1.00;;;;;;5075011;28;20045;-39
2023/01/04 07:22:00;;;;;;;15.45;3.10;;;15.10;1.00;;;;;;5074809;28;20071;-36
2023/01/04 07:24:27;;;;;;;13.82;2.67;;;15.10;1.00;;;;;;5074697;28;20044;-39
2023/01/04 07:26:58;;;;;;;12.85;2.97;;;15.10;1.00;;;;;;5074857;28;20056;-36
2023/01/04 07:29:25;;;;;;;15.65;4.15;;;15.10;1.00;;;;;;5074713;28;20040;-36
2023/01/04 07:31:53;;;;;;;16.35;3.35;;;15.10;1.00;;;;;;5074665;28;20052;-39
2023/01/04 07:34:23;;;;;;;14.30;3.55;;;15.10;1.00;;;;;;5074539;28;20157;-37
2023/01/04 07:36:50;;;;;;;15.48;3.20;;;15.10;1.00;;;;;;5074674;28;20515;-36
2023/01/04 07:39:17;;;;;;;13.85;3.95;;;15.10;1.00;;;;;;5074685;28;20667;-38
2023/01/04 07:41:45;;;;;;;12.18;3.67;;;15.10;1.00;;;;;;5056627;28;20397;-38
2023/01/04 07:44:17;;;;;;;9.25;4.03;;;15.10;1.00;;;;;;5056238;28;20090;-37
2023/01/04 07:46:43;;;;;;;12.05;3.95;;;15.10;1.00;;;;;;5074470;28;20098;-37
2023/01/04 07:49:12;;;;;;;12.43;2.20;;;15.10;1.00;;;;;;5074112;28;20158;-39
2023/01/04 07:51:44;;;;;;;17.67;3.95;;;15.10;1.00;;;;;;5074442;28;20043;-35
2023/01/04 07:54:11;;;;;;;14.45;3.20;;;15.10;1.00;;;;;;5056124;28;20094;-37
2023/01/04 07:56:38;;;;;;;11.55;2.80;;;15.10;1.00;;;;;;5073886;28;20435;-36
2023/01/04 07:59:07;;;;;;;15.23;3.30;;;15.10;1.00;;;;;;5074270;28;20102;-36
2023/01/04 08:01:36;;;;;;;13.55;3.72;;;15.10;1.00;;;;;;5074083;28;20048;-37
2023/01/04 08:04:04;;;;;;;12.05;3.00;;;15.10;1.00;;;;;;5073938;28;20507;-41
2023/01/04 08:06:31;;;;;;;17.65;3.58;;;15.10;1.00;;;;;;5074065;28;20141;-36
2023/01/04 08:08:58;;;;;;;16.58;4.32;;;15.10;1.00;;;;;;5073959;28;20056;-39
2023/01/04 08:11:25;;;;;;;10.63;2.95;;;15.00;1.00;;;;;;5073928;28;20045;-38
2023/01/04 08:13:52;;;;;;;14.35;3.45;;;15.00;1.00;;;;;;5073673;28;20066;-38
2023/01/04 08:16:22;;;;;;;12.10;3.20;;;15.00;1.00;;;;;;5073652;28;20052;-41
2023/01/04 08:18:57;;;;;;;11.23;2.85;;;15.00;1.00;;;;;;5073726;28;20051;-40
2023/01/04 08:21:25;;;;;;;12.82;3.42;;;15.10;1.00;;;;;;5067390;28;20041;-33
2023/01/04 08:23:53;;;;;;;8.98;2.50;;;15.00;1.00;;;;;;5069001;28;20055;-36
2023/01/04 08:26:20;;;;;;;15.07;3.05;;;15.00;1.00;;;;;;5050021;28;20463;-36
2023/01/04 08:28:48;;;;;;;11.07;3.10;;;15.00;1.00;;;;;;5072505;28;20368;-34
2023/01/04 08:31:20;;;;;;;11.15;2.80;;;15.00;1.00;;;;;;5073552;28;20484;-36
2023/01/04 08:33:48;;;;;;;12.15;2.50;;;15.00;1.00;;;;;;5067384;28;20118;-41
2023/01/04 08:36:24;;;;;;;11.18;2.42;;;15.00;1.00;;;;;;5048611;28;20127;-37
2023/01/04 08:39:13;;;;;;;12.57;3.42;;;15.00;1.00;;;;;;5067269;28;20527;-35
2023/01/04 08:41:53;;;;;;;12.05;2.67;;;15.00;1.00;;;;;;5054563;28;20086;-38
2023/01/04 08:44:39;;;;;;;10.90;2.47;;;15.00;1.00;;;;;;5072915;28;20140;-38
2023/01/04 08:47:06;;;;;;;8.40;3.20;;;15.00;1.00;;;;;;5071045;28;20541;-40
2023/01/04 08:49:33;;;;;;;17.42;3.20;;;15.00;1.00;;;;;;5069663;28;20041;-38
2023/01/04 08:51:59;;;;;;;11.73;3.28;;;15.00;1.00;;;;;;5055157;28;20496;-36
2023/01/04 08:54:26;;;;;;;17.05;3.75;;;15.00;1.00;;;;;;5072914;28;20036;-39
2023/01/04 08:56:53;;;;;;;10.43;3.35;;;15.00;1.00;;;;;;5038643;28;20068;-39
2023/01/04 08:59:20;;;;;;;9.68;3.45;;;15.00;1.00;;;;;;5072992;28;20087;-37
2023/01/04 09:01:47;;;;;;;8.32;2.67;;;15.00;1.00;;;;;;5073043;28;20064;-35
2023/01/04 09:04:14;;;;;;;15.32;2.90;;;15.00;1.00;;;;;;5054431;28;20203;-41
2023/01/04 09:06:41;;;;;;;11.82;2.90;;;15.00;1.00;;;;;;5072729;28;20048;-36
2023/01/04 09:09:08;;;;;;;10.30;2.80;;;15.00;1.00;;;;;;5071976;28;20094;-38
2023/01/04 09:11:37;;;;;;;9.00;2.78;;;15.00;1.00;;;;;;5072727;28;20071;-37
2023/01/04 09:14:04;;;;;;;13.05;2.75;;;15.00;1.00;;;;;;5072456;28;20041;-37
2023/01/04 09:16:36;;;;;;;15.57;3.58;;;15.00;1.00;;;;;;5072590;28;20106;-38
2023/01/04 09:19:04;;;;;;;13.88;3.33;;;15.00;1.00;;;;;;5072540;28;20044;-34
2023/01/04 09:21:31;;;;;;;17.25;3.10;;;15.00;1.00;;;;;;5072602;28;20558;-39
2023/01/04 09:23:58;;;;;;;14.43;2.92;;;15.00;1.00;;;;;;5072273;28;20495;-35
2023/01/04 09:26:25;;;;;;;13.50;3.85;;;15.00;1.00;;;;;;5072413;28;20040;-40
2023/01/04 09:28:54;;;;;;;9.52;2.72;;;15.00;1.00;;;;;;5072350;28;20399;-41
2023/01/04 09:31:23;;;;;;;14.30;3.28;;;15.00;1.00;;;;;;5054383;28;20090;-34
2023/01/04 09:33:51;;;;;;;13.02;2.50;;;15.00;1.00;;;;;;5054567;28;20140;-35
2023/01/04 09:36:38;;;;;;;11.77;2.95;;;15.00;1.00;;;;;;5072224;28;20041;-39
2023/01/04 09:39:05;;;;;;;12.23;2.20;;;15.00;1.00;;;;;;5072250;28;20122;-38
2023/01/04 09:41:42;;;;;;;19.02;4.07;;;15.00;1.00;;;;;;5054480;28;20415;-35
2023/01/04 09:44:09;;;;;;;10.55;2.33;;;15.00;1.00;;;;;;5071791;28;20487;-41
2023/01/04 09:46:58;;;;;;;10.55;2.85;;;15.00;1.00;;;;;;5072288;28;20056;-38
2023/01/04 09:49:37;;;;;;;12.25;3.72;;;15.00;1.00;;;;;;5071518;28;20047;-40
2023/01/04 09:52:10;;;;;;;12.30;3.00;;;14.90;1.00;;;;;;5071909;28;20090;-38
2023/01/04 09:54:58;;;;;;;13.52;3.20;;;14.90;1.00;;;;;;5071983;28;20041;-38
2023/01/04 09:57:54;;;;;;;9.82;3.08;;;15.00;1.00;;;;;;5071914;28;20123;-40
2023/01/04 10:00:26;;;;;;;11.25;3.38;;;15.00;1.00;;;;;;5053939;28;20068;-37
2023/01/04 10:03:04;;;;;;;10.82;3.72;;;14.90;1.00;;;;;;5071511;28;20051;-37
2023/01/04 10:05:33;;;;;;;9.25;2.80;;;14.90;1.00;;;;;;5071796;28;20036;-35
2023/01/04 10:08:02;;;;;;;10.45;2.40;;;14.90;1.00;;;;;;5071619;28;20083;-34
2023/01/04 10:10:58;;;;;;;16.98;3.38;;;14.90;1.00;;;;;;5071824;28;20036;-37
2023/01/04 10:13:44;;;;;;;10.52;2.60;;;14.90;1.00;;;;;;5071229;28;20068;-40
2023/01/04 10:16:36;;;;;;;15.50;3.53;;;14.90;1.00;;;;;;5071654;28;20075;-36
2023/01/04 10:19:41;;;;;;;10.35;2.20;;;15.00;1.00;;;;;;5071657;28;20109;-39
2023/01/04 10:22:42;;;;;;;18.02;3.03;;;14.90;1.00;;;;;;5071459;28;20055;-39
2023/01/04 10:25:47;;;;;;;10.98;2.95;;;14.90;1.00;;;;;;5053798;28;20135;-38
2023/01/04 10:28:29;;;;;;;11.00;3.30;;;14.90;1.00;;;;;;5071459;28;20041;-37
2023/01/04 10:31:17;;;;;;;15.63;2.83;;;14.90;1.00;;;;;;5071869;28;20452;-35
2023/01/04 10:34:09;;;;;;;14.32;2.60;;;14.90;1.00;;;;;;5071409;28;20049;-41
2023/01/04 10:36:45;;;;;;;10.82;2.22;;;15.00;1.00;;;;;;5071641;28;20040;-36
2023/01/04 10:39:17;;;;;;;15.30;3.55;;;14.90;1.00;;;;;;5071470;28;20049;-37
2023/01/04 10:41:55;;;;;;;16.38;2.95;;;14.90;1.00;;;;;;5071515;28;20063;-38
2023/01/04 10:44:40;;;;;;;13.30;3.45;;;14.90;1.00;;;;;;5071234;28;20052;-35
2023/01/04 10:47:33;;;;;;;18.00;3.92;;;14.90;1.00;;;;;;5071335;28;20094;-35
2023/01/04 10:50:13;;;;;;;14.77;3.70;;;15.00;1.00;;;;;;5071402;28;20080;-40
2023/01/04 10:52:46;;;;;;;17.25;3.28;;;14.90;1.00;;;;;;5071154;28;20051;-40
2023/01/04 10:55:30;;;;;;;12.13;3.50;;;14.90;1.00;;;;;;5071481;28;20094;-38
2023/01/04 10:58:14;;;;;;;12.48;3.45;;;14.90;1.00;;;;;;5053507;28;20044;-38
2023/01/04 11:00:49;;;;;;;16.20;5.03;;;14.90;1.00;;;;;;5071323;28;20488;-37
2023/01/04 11:03:28;;;;;;;13.45;3.10;;;14.90;1.00;;;;;;5071026;28;20488;-41
2023/01/04 11:06:20;;;;;;;13.57;3.65;;;14.90;1.00;;;;;;5071426;28;20044;-39
2023/01/04 11:09:01;;;;;;;14.35;3.25;;;14.90;1.00;;;;;;5070952;28;20059;-37
2023/01/04 11:11:40;;;;;;;15.90;3.80;;;15.00;1.00;;;;;;5071290;28;20047;-38
2023/01/04 11:14:09;;;;;;;8.80;2.45;;;14.90;1.00;;;;;;5070970;28;20044;-34
2023/01/04 11:16:38;;;;;;;17.95;3.35;;;15.00;1.00;;;;;;5071216;28;20058;-37
2023/01/04 11:19:34;;;;;;;12.85;3.60;;;14.90;1.00;;;;;;5071506;28;20499;-38
2023/01/04 11:22:10;;;;;;;10.20;2.78;;;14.90;1.00;;;;;;5053139;28;20067;-37
2023/01/04 11:24:41;;;;;;;14.40;3.72;;;14.90;1.00;;;;;;5071143;28;20369;-40
2023/01/04 11:27:34;;;;;;;15.38;3.15;;;14.90;1.00;;;;;;5071124;28;20063;-39
2023/01/04 11:30:21;;;;;;;19.38;3.42;;;14.90;1.00;;;;;;5070991;28;20040;-39
2023/01/04 11:33:18;;;;;;;16.25;3.15;;;14.90;1.00;;;;;;5074344;28;20041;-39
2023/01/04 11:35:48;;;;;;;12.57;2.72;;;14.90;1.00;;;;;;5074755;28;20045;-37
2023/01/04 11:38:16;;;;;;;11.50;2.70;;;15.00;1.00;;;;;;5074448;28;20044;-36
2023/01/04 11:41:05;;;;;;;13.25;3.35;;;14.90;1.00;;;;;;5074544;28;20435;-40
2023/01/04 11:43:37;;;;;;;16.63;4.07;;;15.00;1.00;;;;;;5074136;28;20067;-36
2023/01/04 11:46:16;;;;;;;11.65;3.83;;;15.00;1.00;;;;;;5074518;28;20041;-38
2023/01/04 11:48:45;;;;;;;12.32;2.75;;;14.90;1.00;;;;;;5074005;28;20120;-37
2023/01/04 11:51:35;;;;;;;15.32;3.60;;;15.00;1.00;;;;;;5074307;28;20037;-40
2023/01/04 11:54:12;;;;;;;14.00;3.85;;;15.00;1.00;;;;;;5064241;28;20122;-34
2023/01/04 11:57:08;;;;;;;11.65;2.15;;;15.00;1.00;;;;;;5074254;28;20103;-39
2023/01/04 11:59:38;;;;;;;10.32;3.17;;;15.00;1.00;;;;;;5074157;28;20518;-40
2023/01/04 12:02:25;;;;;;;11.10;3.60;;;15.00;1.00;;;;;;5074091;28;20048;-38
2023/01/04 12:05:21;;;;;;;10.65;2.50;;;15.00;1.00;;;;;;5073858;28;20048;-37
2023/01/04 12:07:56;;;;;;;14.35;3.22;;;14.90;1.00;;;;;;5073997;28;20067;-34
2023/01/04 12:10:25;;;;;;;15.00;2.85;;;15.00;1.00;;;;;;5073881;28;20044;-38
2023/01/04 12:12:54;;;;;;;11.45;2.75;;;14.90;1.00;;;;;;5055694;28;20040;-40
2023/01/04 12:15:35;;;;;;;9.88;3.63;;;15.00;1.00;;;;;;5073979;28;20466;-34
2023/01/04 12:18:09;;;;;;;16.38;3.60;;;15.00;1.00;;;;;;5073707;28;20431;-38
2023/01/04 12:20:36;;;;;;;13.45;3.08;;;14.90;1.00;;;;;;5073851;28;20045;-40
2023/01/04 12:23:03;;;;;;;11.38;3.47;;;15.00;1.00;;;;;;5073423;28;20375;-37
2023/01/04 12:25:41;;;;;;;11.73;2.55;;;15.00;1.00;;;;;;5073698;28;20049;-37
2023/01/04 12:28:35;;;;;;;8.60;2.72;;;15.00;1.00;;;;;;5073628;28;20072;-39
2023/01/04 12:31:26;;;;;;;12.32;2.53;;;15.00;1.00;;;;;;5073701;28;20125;-39
2023/01/04 12:34:16;;;;;;;13.50;3.03;;;15.00;1.00;;;;;;5063689;28;20053;-36
2023/01/04 12:36:54;;;;;;;12.88;2.80;;;15.00;1.00;;;;;;5073512;28;20040;-33
2023/01/04 12:39:40;;;;;;;11.75;2.92;;;15.00;1.00;;;;;;5073408;28;20051;-37
2023/01/04 12:42:14;;;;;;;11.70;3.13;;;15.00;1.00;;;;;;5072390;28;20074;-36
2023/01/04 12:44:50;;;;;;;19.63;4.18;;;15.00;1.00;;;;;;5073246;28;20048;-40
2023/01/04 12:50:12;;;;;;;15.07;3.63;;;15.00;1.00;;;;;;5073200;28;20037;-35
2023/01/04 12:52:46;;;;;;;12.38;2.65;;;15.00;1.00;;;;;;5073047;28;20399;-37
2023/01/04 12:55:33;;;;;;;8.40;2.35;;;15.00;1.00;;;;;;5055133;28;20136;-38
2023/01/04 12:58:27;;;;;;;11.60;3.28;;;15.00;1.00;;;;;;5073113;28;20044;-37
2023/01/04 13:01:23;;;;;;;10.27;2.15;;;15.00;1.00;;;;;;5073101;28;20040;-38
2023/01/04 13:03:58;;;;;;;16.58;3.08;;;15.00;1.00;;;;;;5054852;28;20388;-38
2023/01/04 13:06:41;;;;;;;9.07;3.08;;;15.00;1.00;;;;;;5073023;28;20076;-36
2023/01/04 13:09:19;;;;;;;15.15;2.53;;;15.00;1.00;;;;;;5072695;28;20052;-38
2023/01/04 13:12:11;;;;;;;12.27;2.97;;;15.00;1.00;;;;;;5072837;28;20041;-39
2023/01/04 13:14:46;;;;;;;11.48;3.28;;;15.00;1.00;;;;;;5054632;28;20511;-39
2023/01/04 13:17:13;;;;;;;11.70;2.67;;;15.00;1.00;;;;;;5072783;28;20044;-37
2023/01/04 13:19:42;;;;;;;14.88;3.10;;;15.00;1.00;;;;;;5072478;28;20052;-38
2023/01/04 13:22:26;;;;;;;14.18;2.65;;;15.00;1.00;;;;;;5072383;28;20549;-38
2023/01/04 13:24:57;;;;;;;15.43;3.28;;;15.00;1.00;;;;;;5055163;28;20106;-38
2023/01/04 13:27:25;;;;;;;13.48;2.75;;;15.00;1.00;;;;;;5072513;28;20381;-39
2023/01/04 13:29:52;;;;;;;11.73;2.90;;;15.00;1.00;;;;;;5072450;28;20475;-41
2023/01/04 13:32:27;;;;;;;14.15;2.58;;;15.00;1.00;;;;;;5072174;28;20488;-34
2023/01/04 13:35:00;;;;;;;11.15;3.70;;;15.00;1.00;;;;;;5072255;28;20102;-39
2023/01/04 13:37:39;;;;;;;16.08;3.05;;;15.00;1.00;;;;;;5072369;28;20036;-39
2023/01/04 13:40:12;;;;;;;;;;;15.00;1.00;;;;;;5072816;28;20121;-38
2023/01/04 13:42:42;;;;;;;10.57;1.88;;;15.00;1.00;;;;;;5072030;28;20418;-37
2023/01/04 13:45:53;;;;;;;9.13;2.17;;;15.00;1.00;;;;;;5072179;28;20123;-37
2023/01/04 13:48:23;;;;;;;15.85;3.97;;;15.00;1.00;;;;;;5068535;28;20064;-38
2023/01/04 13:51:29;;;;;;;14.05;2.25;;;15.00;1.00;;;;;;5053974;28;20068;-38
2023/01/04 13:54:05;;;;;;;15.75;4.38;;;15.00;1.00;;;;;;5035111;28;20135;-38
2023/01/04 13:56:34;;;;;;;8.65;2.50;;;15.00;1.00;;;;;;5072142;28;20041;-37
2023/01/04 13:59:00;;;;;;;13.38;2.97;;;15.00;1.00;;;;;;5071791;28;20120;-38
2023/01/04 14:01:34;;;;;;;11.27;2.42;;;15.00;1.00;;;;;;5072060;28;20044;-35
2023/01/04 14:04:06;;;;;;;11.23;2.95;;;15.00;1.00;;;;;;5071588;28;20044;-38
2023/01/04 14:06:44;;;;;;;12.02;2.47;;;15.00;1.00;;;;;;5071881;28;20048;-36
2023/01/04 14:09:12;;;;;;;15.60;3.53;;;15.00;1.00;;;;;;5071734;28;20055;-36